Time;durP1;ratioP1;P1;durP2;ratioP2;P2;SDS_P1;SDS_P2;PMS_P1;PMS_P2;Temp;Humidity;BMP_temperature;BMP_pressure;BME280_temperature;BME280_humidity;BME280_pressure;Samples;Min_cycle;Max_cycle;Signal;HPM_P1;HPM_P2
2021/11/04 00:00:09;;;;;;;;;27.00;20.00;;;;;9.00;69.22;100360.59;4999500;28;45338;-72
2021/11/04 00:02:35;;;;;;;;;18.50;18.50;;;;;8.97;69.14;100352.69;4999536;28;45485;-73
2021/11/04 00:05:15;;;;;;;;;31.25;25.00;;;;;8.96;69.33;100354.44;4999886;28;45214;-72
2021/11/04 00:07:41;;;;;;;;;21.25;20.75;;;;;8.93;69.40;100347.38;4997996;28;46598;-72
2021/11/04 00:10:08;;;;;;;;;25.50;20.00;;;;;8.89;69.45;100342.97;4999570;28;45421;-73
2021/11/04 00:12:33;;;;;;;;;23.00;21.75;;;;;8.92;69.47;100340.34;4999529;28;45514;-73
2021/11/04 00:14:58;;;;;;;;;31.00;23.75;;;;;9.00;69.58;100345.69;4999741;28;45428;-73
2021/11/04 00:17:24;;;;;;;;;27.25;19.75;;;;;9.05;69.48;100353.63;4998843;28;51468;-72
2021/11/04 00:19:49;;;;;;;;;23.50;20.50;;;;;9.05;69.62;100350.97;4996038;28;55391;-73
2021/11/04 00:22:15;;;;;;;;;25.00;23.25;;;;;9.05;69.73;100343.09;4998282;28;45138;-73
2021/11/04 00:24:40;;;;;;;;;24.25;22.50;;;;;9.10;69.51;100339.63;4999288;28;45201;-72
2021/11/04 00:27:05;;;;;;;;;18.75;18.50;;;;;9.14;69.55;100346.69;4999120;28;47369;-72
2021/11/04 00:29:31;;;;;;;;;27.25;23.75;;;;;9.19;69.84;100352.88;4999171;28;45434;-72
2021/11/04 00:31:57;;;;;;;;;24.25;20.75;;;;;9.23;69.59;100345.03;4999276;28;45330;-72
2021/11/04 00:34:23;;;;;;;;;20.50;18.25;;;;;9.26;69.60;100353.81;4997883;28;45499;-73
2021/11/04 00:36:48;;;;;;;;;24.75;21.00;;;;;9.31;69.66;100357.38;4998819;28;47777;-72
2021/11/04 00:39:14;;;;;;;;;26.00;20.50;;;;;9.32;69.47;100340.72;4998808;28;45442;-73
2021/11/04 00:41:39;;;;;;;;;27.25;22.25;;;;;9.41;69.59;100361.84;4998869;28;45474;-73
2021/11/04 00:44:05;;;;;;;;;23.50;18.25;;;;;9.45;69.74;100346.94;4992394;28;45632;-73
2021/11/04 00:46:31;;;;;;;;;19.50;17.25;;;;;9.41;69.54;100342.53;4998623;28;46635;-73
2021/11/04 00:48:56;;;;;;;;;19.75;17.75;;;;;9.48;69.47;100360.16;4998847;28;45330;-72
2021/11/04 00:51:21;;;;;;;;;21.50;18.25;;;;;9.45;69.18;100358.38;4998972;28;45308;-73
2021/11/04 00:53:47;;;;;;;;;24.00;16.50;;;;;9.42;69.23;100355.69;4997611;28;45549;-73
2021/11/04 00:56:12;;;;;;;;;24.50;21.00;;;;;9.39;69.48;100360.97;4998559;28;47683;-73
2021/11/04 00:58:37;;;;;;;;;24.25;17.75;;;;;9.37;69.26;100362.69;4998190;28;54136;-72
2021/11/04 01:01:03;;;;;;;;;18.00;17.00;;;;;9.35;69.40;100361.81;4998934;28;45208;-73
2021/11/04 01:03:28;;;;;;;;;24.25;18.00;;;;;9.34;69.59;100365.31;4998897;28;45626;-73
2021/11/04 01:05:54;;;;;;;;;23.50;18.25;;;;;9.28;69.60;100351.22;4997996;28;58102;-73
2021/11/04 01:08:19;;;;;;;;;21.00;19.75;;;;;9.30;69.85;100363.50;4998371;28;45469;-72
2021/11/04 01:10:45;;;;;;;;;21.50;17.50;;;;;9.29;69.78;100359.13;4998628;28;45315;-73
2021/11/04 01:13:10;;;;;;;;;20.50;17.00;;;;;9.23;69.76;100361.72;4998467;28;48251;-73
2021/11/04 01:15:35;;;;;;;;;19.00;17.75;;;;;9.24;69.60;100363.47;4997909;28;50882;-72
2021/11/04 01:18:01;;;;;;;;;21.75;16.50;;;;;9.23;69.50;100359.06;4998208;28;46236;-73
2021/11/04 01:20:26;;;;;;;;;21.50;18.00;;;;;9.17;69.81;100356.38;4993641;28;45806;-72
2021/11/04 01:22:53;;;;;;;;;20.25;17.00;;;;;9.15;69.75;100355.47;4998425;28;45454;-73
2021/11/04 01:25:18;;;;;;;;;19.75;17.00;;;;;9.18;69.85;100361.66;4998149;28;46660;-73
2021/11/04 01:27:44;;;;;;;;;24.75;17.75;;;;;9.19;69.67;100357.28;4998081;28;47486;-73
2021/11/04 01:30:09;;;;;;;;;21.25;17.25;;;;;9.17;69.63;100361.66;4998182;28;45476;-73
2021/11/04 01:32:35;;;;;;;;;19.25;17.00;;;;;9.16;69.78;100358.16;4998298;28;45413;-72
2021/11/04 01:35:01;;;;;;;;;20.25;16.75;;;;;9.16;70.05;100352.88;4997994;28;46805;-73
2021/11/04 01:37:27;;;;;;;;;17.25;17.00;;;;;9.16;69.67;100349.31;4997999;28;45320;-73
2021/11/04 01:39:52;;;;;;;;;21.50;16.00;;;;;9.16;69.90;100344.06;4997362;28;45368;-73
2021/11/04 01:42:18;;;;;;;;;16.25;15.25;;;;;9.14;69.62;100354.59;4996920;28;45358;-72
2021/11/04 01:44:44;;;;;;;;;19.00;16.75;;;;;9.10;69.75;100355.44;4991035;28;46265;-73
2021/11/04 01:47:09;;;;;;;;;21.50;17.75;;;;;9.10;69.84;100360.69;4997052;28;45488;-73
2021/11/04 01:49:36;;;;;;;;;19.25;13.50;;;;;9.08;69.79;100361.56;4997685;28;45628;-73
2021/11/04 01:52:02;;;;;;;;;16.00;16.00;;;;;9.06;70.06;100364.19;4996911;28;45346;-73
2021/11/04 01:54:28;;;;;;;;;19.75;15.75;;;;;9.05;69.87;100366.78;4997719;28;47483;-73
2021/11/04 01:56:53;;;;;;;;;20.75;16.00;;;;;9.06;70.10;100374.72;4997730;28;45417;-73
2021/11/04 01:59:18;;;;;;;;;21.50;18.50;;;;;9.09;69.92;100377.38;4996665;28;45279;-73
2021/11/04 02:01:44;;;;;;;;;22.00;18.75;;;;;9.08;70.08;100374.72;4997904;28;45413;-73
2021/11/04 02:04:15;;;;;;;;;18.75;16.50;;;;;9.12;70.33;100385.31;4979907;28;47356;-72
2021/11/04 02:06:55;;;;;;;;;18.00;16.25;;;;;8.99;70.24;100356.19;4997519;28;45337;-72
2021/11/04 02:09:39;;;;;;;;;17.00;16.75;;;;;9.12;70.02;100352.84;4997596;28;45507;-73
2021/11/04 02:12:17;;;;;;;;;18.50;15.50;;;;;9.12;70.00;100356.34;4996629;28;45423;-72
2021/11/04 02:14:44;;;;;;;;;15.75;14.75;;;;;9.11;70.16;100372.13;4997373;28;46418;-72
2021/11/04 02:17:09;;;;;;;;;20.75;17.25;;;;;9.09;69.95;100366.84;4996299;28;45524;-73
2021/11/04 02:19:45;;;;;;;;;13.25;13.25;;;;;9.09;70.09;100365.97;4995318;28;45616;-73
2021/11/04 02:22:56;;;;;;;;;21.50;17.25;;;;;9.10;70.06;100367.72;4995948;28;45205;-72
2021/11/04 02:25:28;;;;;;;;;22.00;20.50;;;;;9.10;70.37;100375.63;4997177;28;46437;-72
2021/11/04 02:27:56;;;;;;;;;17.25;12.50;;;;;9.07;70.32;100378.25;4979999;28;45394;-73
2021/11/04 02:30:22;;;;;;;;;18.00;18.00;;;;;9.07;70.14;100381.75;4995988;28;45262;-72
2021/11/04 02:32:49;;;;;;;;;26.00;21.50;;;;;9.05;70.16;100365.03;4997676;28;45260;-72
2021/11/04 02:35:14;;;;;;;;;18.75;16.25;;;;;9.04;70.28;100375.56;4997012;28;47222;-72
2021/11/04 02:37:40;;;;;;;;;25.75;18.00;;;;;9.04;70.11;100379.06;4997174;28;45287;-72
2021/11/04 02:40:07;;;;;;;;;20.00;17.50;;;;;9.02;70.38;100388.72;4995722;28;45628;-72
2021/11/04 02:42:32;;;;;;;;;24.25;21.00;;;;;8.99;69.89;100382.53;4996219;28;45583;-73
2021/11/04 02:44:57;;;;;;;;;30.50;20.75;;;;;8.96;70.08;100379.88;5012139;28;46191;-73
2021/11/04 02:47:23;;;;;;;;;17.00;16.00;;;;;8.94;70.22;100379.84;4997190;28;45472;-73
2021/11/04 02:49:48;;;;;;;;;19.25;18.25;;;;;8.98;70.44;100391.31;4995495;28;45297;-73
2021/11/04 02:52:15;;;;;;;;;21.75;18.25;;;;;8.98;70.15;100378.13;4995463;28;45478;-73
2021/11/04 02:54:52;;;;;;;;;19.25;18.75;;;;;9.02;70.17;100383.47;4995666;28;47283;-73
2021/11/04 02:57:18;;;;;;;;;22.50;19.25;;;;;9.05;70.04;100377.31;4996939;28;45204;-73
2021/11/04 02:59:43;;;;;;;;;21.00;18.75;;;;;9.05;69.64;100378.19;4997060;28;45271;-73
2021/11/04 03:02:09;;;;;;;;;24.75;23.75;;;;;9.13;70.17;100394.09;4997016;28;45200;-73
2021/11/04 03:04:34;;;;;;;;;27.75;22.75;;;;;9.18;70.16;100400.28;4996735;28;47352;-73
2021/11/04 03:07:01;;;;;;;;;30.50;23.25;;;;;9.17;69.64;100382.72;4996453;28;56029;-72
2021/11/04 03:09:26;;;;;;;;;24.25;21.25;;;;;9.26;69.91;100397.72;4996848;28;45295;-73
2021/11/04 03:11:51;;;;;;;;;29.00;22.00;;;;;9.28;70.24;100391.63;4996743;28;45272;-73
2021/11/04 03:14:17;;;;;;;;;22.25;21.25;;;;;9.33;69.67;100399.56;4996636;28;48133;-72
2021/11/04 03:16:44;;;;;;;;;24.75;22.00;;;;;9.32;69.82;100389.88;4996456;28;45274;-72
2021/11/04 03:19:11;;;;;;;;;27.50;22.75;;;;;9.39;69.85;100408.41;4996834;28;45409;-73
2021/11/04 03:21:38;;;;;;;;;20.75;18.75;;;;;9.42;69.65;100399.63;4993247;28;45430;-73
2021/11/04 03:24:04;;;;;;;;;23.00;20.50;;;;;9.47;69.55;100397.91;4996540;28;47340;-73
2021/11/04 03:26:30;;;;;;;;;23.50;22.75;;;;;9.45;69.72;100382.09;4996530;28;45490;-73
2021/11/04 03:29:06;;;;;;;;;;;;;;;;;;;;;
2021/11/04 03:31:32;;;;;;;;;22.25;17.50;;;;;9.54;69.33;100393.59;4993500;28;68296;-73
2021/11/04 03:34:01;;;;;;;;;18.00;18.00;;;;;9.54;69.27;100389.19;4995268;28;47399;-73
2021/11/04 03:36:27;;;;;;;;;21.25;18.75;;;;;9.48;69.04;100383.88;4995048;28;45389;-73
2021/11/04 03:38:52;;;;;;;;;24.25;18.50;;;;;9.55;69.26;100392.72;4978796;28;45959;-73
2021/11/04 03:41:18;;;;;;;;;20.00;19.00;;;;;9.55;69.09;100398.00;4996689;28;45412;-73
2021/11/04 03:43:44;;;;;;;;;29.00;21.50;;;;;9.56;69.31;100399.75;4994713;28;46377;-72
2021/11/04 03:46:09;;;;;;;;;20.00;18.25;;;;;9.60;69.74;100407.69;4994863;28;45236;-73
2021/11/04 03:48:36;;;;;;;;;25.00;21.25;;;;;9.56;69.44;100392.72;4995386;28;46011;-72
2021/11/04 03:51:02;;;;;;;;;17.75;17.50;;;;;9.65;69.09;100407.75;4995186;28;45424;-73
2021/11/04 03:53:27;;;;;;;;;25.50;23.25;;;;;9.65;69.06;100413.88;4996112;28;47329;-73
2021/11/04 03:55:53;;;;;;;;;26.75;23.25;;;;;9.67;69.08;100421.81;4994868;28;49309;-72
2021/11/04 03:58:18;;;;;;;;;20.50;19.50;;;;;9.67;69.40;100419.16;4996369;28;45615;-73
2021/11/04 04:00:43;;;;;;;;;21.00;18.50;;;;;9.62;69.23;100413.84;4995009;28;45382;-73
2021/11/04 04:03:09;;;;;;;;;23.25;17.25;;;;;9.69;69.62;100422.69;4998058;28;46508;-72
2021/11/04 04:05:34;;;;;;;;;25.75;23.75;;;;;9.65;69.47;100424.44;4999249;28;45301;-73
2021/11/04 04:08:00;;;;;;;;;24.25;18.50;;;;;9.67;69.54;100429.72;4999621;28;45990;-73
2021/11/04 04:10:26;;;;;;;;;23.25;19.75;;;;;9.64;69.12;100427.94;4999663;28;45620;-72
2021/11/04 04:12:51;;;;;;;;;24.25;22.00;;;;;9.70;69.62;100432.38;4999353;28;46651;-72
2021/11/04 04:15:17;;;;;;;;;28.25;20.50;;;;;9.72;69.56;100430.63;4999261;28;45486;-73
2021/11/04 04:17:43;;;;;;;;;21.75;18.50;;;;;9.69;69.62;100420.03;4999551;28;45248;-72
2021/11/04 04:20:08;;;;;;;;;29.75;20.00;;;;;9.73;69.58;100435.03;4995145;28;45226;-73
2021/11/04 04:22:33;;;;;;;;;26.50;20.00;;;;;9.73;69.56;100432.38;4999198;28;46524;-73
2021/11/04 04:24:59;;;;;;;;;24.50;19.00;;;;;9.74;69.85;100430.63;4999055;28;48655;-72
2021/11/04 04:27:24;;;;;;;;;19.75;19.00;;;;;9.74;69.64;100438.53;4999489;28;45353;-73
2021/11/04 04:29:50;;;;;;;;;18.00;17.75;;;;;9.72;69.82;100435.91;4999058;28;45423;-72
2021/11/04 04:32:15;;;;;;;;;28.50;21.00;;;;;9.71;70.01;100450.84;4998899;28;46803;-72
2021/11/04 04:34:42;;;;;;;;;32.50;26.25;;;;;9.63;70.27;100435.81;4998778;28;45358;-72
2021/11/04 04:37:07;;;;;;;;;24.50;19.00;;;;;9.69;70.18;100438.50;4999184;28;45334;-73
2021/11/04 04:39:33;;;;;;;;;25.25;24.00;;;;;9.69;70.16;100456.94;4999137;28;45688;-73
2021/11/04 04:42:00;;;;;;;;;25.75;18.25;;;;;9.66;70.13;100455.19;4998719;28;45756;-72
2021/11/04 04:44:26;;;;;;;;;26.50;20.25;;;;;9.65;70.32;100449.91;5013771;28;45409;-73
2021/11/04 04:46:51;;;;;;;;;23.50;22.75;;;;;9.66;70.40;100449.91;4999081;28;45275;-72
2021/11/04 04:49:17;;;;;;;;;19.75;16.00;;;;;9.61;70.33;100446.34;4999050;28;45524;-72
2021/11/04 04:51:42;;;;;;;;;31.25;23.50;;;;;9.69;70.97;100454.31;4996938;28;47660;-72
2021/11/04 04:54:08;;;;;;;;;27.00;21.00;;;;;9.72;70.79;100462.28;4998638;28;45439;-73
2021/11/04 04:56:33;;;;;;;;;23.50;22.00;;;;;9.73;71.19;100461.38;4998822;28;45201;-72
2021/11/04 04:58:59;;;;;;;;;24.25;23.25;;;;;9.73;71.04;100456.13;4998692;28;45181;-73
2021/11/04 05:01:25;;;;;;;;;29.75;23.00;;;;;9.73;71.38;100460.50;4998718;28;47653;-73
2021/11/04 05:03:50;;;;;;;;;27.00;21.25;;;;;9.67;71.60;100463.97;4998674;28;45358;-73
2021/11/04 05:06:16;;;;;;;;;28.75;23.00;;;;;9.66;71.48;100457.81;4998274;28;45220;-73
2021/11/04 05:08:41;;;;;;;;;32.75;23.00;;;;;9.65;71.61;100461.34;4998658;28;45477;-73
2021/11/04 05:11:06;;;;;;;;;22.75;20.25;;;;;9.64;71.49;100456.94;4998698;28;47497;-73
2021/11/04 05:13:32;;;;;;;;;24.75;19.50;;;;;9.61;71.75;100456.91;4997249;28;48477;-72
2021/11/04 05:15:58;;;;;;;;;26.00;21.75;;;;;9.65;72.21;100461.34;4998715;28;45359;-73
2021/11/04 05:18:24;;;;;;;;;22.50;18.75;;;;;9.64;71.85;100451.66;4998492;28;45492;-74
2021/11/04 05:20:49;;;;;;;;;23.25;21.75;;;;;9.65;72.18;100463.97;4994446;28;46562;-72
2021/11/04 05:23:15;;;;;;;;;31.25;25.25;;;;;9.61;72.16;100462.19;4997966;28;48302;-73
2021/11/04 05:25:48;;;;;;;;;18.25;18.00;;;;;9.57;72.79;100456.84;4998620;28;45294;-72
2021/11/04 05:28:13;;;;;;;;;22.50;20.25;;;;;9.69;72.08;100468.41;4997231;28;46050;-73
2021/11/04 05:30:39;;;;;;;;;26.00;22.00;;;;;9.69;72.15;100472.78;4997986;28;47301;-73
2021/11/04 05:33:04;;;;;;;;;20.50;18.75;;;;;9.67;72.19;100479.78;4998259;28;45450;-73
2021/11/04 05:35:30;;;;;;;;;24.00;24.00;;;;;9.62;72.53;100463.94;4998371;28;45351;-73
2021/11/04 05:37:55;;;;;;;;;25.50;21.25;;;;;9.66;72.34;100467.50;4998327;28;45508;-73
2021/11/04 05:40:21;;;;;;;;;24.00;19.00;;;;;9.70;71.94;100485.09;4997763;28;46614;-73
2021/11/04 05:42:46;;;;;;;;;22.75;21.50;;;;;9.68;72.49;100469.25;4997619;28;45473;-72
2021/11/04 05:45:12;;;;;;;;;22.00;17.50;;;;;9.70;72.63;100480.72;4990637;28;45496;-73
2021/11/04 05:47:37;;;;;;;;;22.00;17.25;;;;;9.74;72.52;100491.28;4997938;28;45305;-73
2021/11/04 05:50:03;;;;;;;;;22.50;18.75;;;;;9.73;73.36;100484.25;4997876;28;47502;-73
2021/11/04 05:52:29;;;;;;;;;21.25;19.75;;;;;9.72;72.73;100488.63;4997918;28;45597;-73
2021/11/04 05:54:57;;;;;;;;;26.00;22.75;;;;;9.69;72.98;100480.69;4998112;28;45549;-73
2021/11/04 05:57:23;;;;;;;;;27.00;22.25;;;;;9.76;73.16;100482.53;4997970;28;45378;-73
2021/11/04 05:59:49;;;;;;;;;23.75;18.75;;;;;9.77;73.40;100478.13;4997583;28;46478;-72
2021/11/04 06:02:14;;;;;;;;;29.50;23.75;;;;;9.73;73.02;100490.38;4997558;28;45303;-73
2021/11/04 06:04:44;;;;;;;;;25.25;22.00;;;;;9.70;72.66;100471.94;4996594;28;45338;-73
2021/11/04 06:07:10;;;;;;;;;24.75;22.25;;;;;9.74;73.26;100486.88;4997720;28;45554;-72
2021/11/04 06:09:35;;;;;;;;;23.75;17.75;;;;;9.76;73.42;100487.78;4997570;28;47545;-73
2021/11/04 06:12:01;;;;;;;;;24.75;21.50;;;;;9.73;73.37;100489.50;4997609;28;45561;-73
2021/11/04 06:14:26;;;;;;;;;23.75;20.00;;;;;9.76;73.05;100495.72;4997475;28;45798;-73
2021/11/04 06:16:52;;;;;;;;;34.50;23.75;;;;;9.75;73.03;100504.50;4997746;28;45524;-73
2021/11/04 06:19:20;;;;;;;;;25.00;20.00;;;;;9.75;73.52;100503.56;4997232;28;45732;-73
2021/11/04 06:21:45;;;;;;;;;20.75;19.00;;;;;9.75;72.83;100517.69;4993417;28;48273;-73
2021/11/04 06:24:11;;;;;;;;;26.00;20.25;;;;;9.76;73.46;100502.72;4997082;28;46773;-74
2021/11/04 06:26:37;;;;;;;;;25.25;22.00;;;;;9.78;73.82;100508.91;4997172;28;45272;-72
2021/11/04 06:29:02;;;;;;;;;19.75;17.75;;;;;9.78;74.13;100495.72;5000202;28;46641;-73
2021/11/04 06:31:28;;;;;;;;;24.75;19.50;;;;;9.76;73.24;100508.88;4997160;28;45348;-73
2021/11/04 06:33:53;;;;;;;;;19.50;16.50;;;;;9.78;73.63;100514.16;4997198;28;45749;-72
2021/11/04 06:36:19;;;;;;;;;20.75;18.75;;;;;9.78;73.61;100519.44;4996982;28;48095;-72
2021/11/04 06:38:44;;;;;;;;;33.00;20.25;;;;;9.78;74.02;100522.97;4996887;28;47245;-72
2021/11/04 06:41:09;;;;;;;;;21.50;19.00;;;;;9.77;73.80;100528.22;4997223;28;45255;-73
2021/11/04 06:43:35;;;;;;;;;27.00;21.75;;;;;9.75;74.03;100519.41;4994832;28;45187;-73
2021/11/04 06:46:01;;;;;;;;;22.25;19.50;;;;;9.82;73.80;100534.44;4993045;28;45614;-73
2021/11/04 06:48:34;;;;;;;;;26.75;18.25;;;;;9.84;73.98;100530.91;4997037;28;46673;-73
2021/11/04 06:50:59;;;;;;;;;22.00;18.00;;;;;9.86;73.86;100529.19;4980030;28;45424;-73
2021/11/04 06:53:26;;;;;;;;;23.50;20.25;;;;;9.86;73.79;100533.59;4997218;28;47192;-73
2021/11/04 06:55:53;;;;;;;;;19.75;19.00;;;;;9.83;73.90;100534.44;4997172;28;45296;-73
2021/11/04 06:58:20;;;;;;;;;24.00;20.25;;;;;9.90;73.93;100546.78;4997008;28;47372;-73
2021/11/04 07:00:46;;;;;;;;;18.00;18.00;;;;;9.90;73.84;100535.34;4979583;28;45263;-72
2021/11/04 07:03:23;;;;;;;;;23.50;18.50;;;;;9.97;73.96;100558.31;4997269;28;45363;-72
2021/11/04 07:05:55;;;;;;;;;18.50;15.75;;;;;9.94;73.67;100559.13;4997007;28;45541;-73
2021/11/04 07:08:22;;;;;;;;;15.00;13.50;;;;;9.87;74.13;100544.16;4996632;28;46443;-73
2021/11/04 07:10:48;;;;;;;;;20.00;15.25;;;;;9.90;74.01;100548.53;4996535;28;45227;-73
2021/11/04 07:13:14;;;;;;;;;18.50;18.00;;;;;9.87;73.91;100549.41;4997052;28;45303;-72
2021/11/04 07:15:41;;;;;;;;;16.50;14.25;;;;;9.90;74.18;100552.06;4996811;28;45554;-73
2021/11/04 07:18:06;;;;;;;;;17.75;17.50;;;;;9.90;73.87;100565.25;4995496;28;46398;-72
2021/11/04 07:20:32;;;;;;;;;18.50;16.50;;;;;9.93;74.21;100567.06;4992648;28;49782;-73
2021/11/04 07:22:57;;;;;;;;;21.50;16.75;;;;;9.93;74.28;100573.19;4979042;28;46328;-73
2021/11/04 07:25:23;;;;;;;;;18.25;17.75;;;;;9.94;74.20;100567.06;4995869;28;45502;-73
2021/11/04 07:28:08;;;;;;;;;17.25;12.75;;;;;9.99;74.54;100575.00;4996836;28;46397;-73
2021/11/04 07:30:33;;;;;;;;;16.25;13.75;;;;;10.01;74.44;100588.22;4996609;28;45473;-73
2021/11/04 07:32:58;;;;;;;;;18.25;14.00;;;;;10.02;74.65;100595.28;4996608;28;45354;-73
2021/11/04 07:35:26;;;;;;;;;14.25;11.25;;;;;10.03;74.31;100597.91;4996698;28;45446;-73
2021/11/04 07:37:51;;;;;;;;;17.50;15.00;;;;;10.06;74.47;100600.56;4998786;28;46720;-73
2021/11/04 07:40:18;;;;;;;;;17.00;14.00;;;;;10.07;74.55;100605.00;4999932;28;45352;-73
2021/11/04 07:42:44;;;;;;;;;15.00;14.25;;;;;10.10;74.65;100601.50;4999621;28;45363;-73
2021/11/04 07:45:10;;;;;;;;;20.00;15.50;;;;;10.12;74.53;100608.56;4993317;28;45734;-73
2021/11/04 07:47:36;;;;;;;;;18.75;15.25;;;;;10.15;74.40;100610.34;4999706;28;46180;-73
2021/11/04 07:50:03;;;;;;;;;10.50;10.50;;;;;10.13;74.51;100607.69;4999939;28;45450;-73
2021/11/04 07:52:29;;;;;;;;;16.50;13.75;;;;;10.18;74.77;100620.94;5000041;28;45400;-73
2021/11/04 07:54:54;;;;;;;;;18.75;12.50;;;;;10.23;74.48;100640.31;4998995;28;45386;-73
2021/11/04 07:57:19;;;;;;;;;14.75;14.75;;;;;10.26;74.24;100637.72;4998383;28;54172;-73
2021/11/04 07:59:45;;;;;;;;;18.25;14.75;;;;;10.23;74.38;100625.41;4999478;28;51160;-73
2021/11/04 08:02:10;;;;;;;;;18.50;13.25;;;;;10.30;74.47;100641.28;4999750;28;47003;-73
2021/11/04 08:04:36;;;;;;;;;21.00;13.00;;;;;10.25;74.06;100630.69;4999828;28;45584;-72
2021/11/04 08:07:01;;;;;;;;;16.75;14.00;;;;;10.29;74.22;100643.06;4999506;28;47292;-73
2021/11/04 08:09:27;;;;;;;;;17.00;14.00;;;;;10.29;74.23;100647.44;4999691;28;45302;-73
2021/11/04 08:11:52;;;;;;;;;16.75;13.00;;;;;10.27;74.67;100646.53;4999625;28;45279;-73
2021/11/04 08:14:18;;;;;;;;;15.00;13.50;;;;;10.24;74.45;100644.75;4998510;28;45568;-73
2021/11/04 08:16:43;;;;;;;;;14.50;8.00;;;;;10.28;74.73;100646.56;4999161;28;46961;-73
2021/11/04 08:19:08;;;;;;;;;13.75;10.25;;;;;10.32;74.55;100655.38;4999449;28;45407;-73
2021/11/04 08:21:34;;;;;;;;;13.00;12.25;;;;;10.29;74.49;100648.31;4995463;28;45399;-73
2021/11/04 08:23:59;;;;;;;;;14.50;13.50;;;;;10.33;74.43;100655.38;4999507;28;45181;-73
2021/11/04 08:26:25;;;;;;;;;12.00;12.00;;;;;10.37;74.52;100664.22;4998879;28;54712;-73
2021/11/04 08:28:52;;;;;;;;;15.00;11.33;;;;;10.40;74.63;100667.78;4999235;28;45354;-73
2021/11/04 08:31:18;;;;;;;;;12.33;8.00;;;;;10.41;74.24;100666.91;4999388;28;45349;-73
2021/11/04 08:33:43;;;;;;;;;13.50;9.75;;;;;10.39;74.17;100665.13;4999526;28;45335;-73
2021/11/04 08:36:09;;;;;;;;;12.67;11.67;;;;;10.39;74.43;100667.78;4999055;28;47282;-73
2021/11/04 08:38:35;;;;;;;;;10.33;8.00;;;;;10.34;74.33;100665.09;4999092;28;45238;-73
2021/11/04 08:41:00;;;;;;;;;14.50;11.25;;;;;10.33;74.46;100681.75;4999166;28;45460;-73
2021/11/04 08:43:25;;;;;;;;;11.67;9.67;;;;;10.32;74.58;100682.66;4997772;28;45493;-73
2021/11/04 08:45:51;;;;;;;;;9.33;9.00;;;;;10.33;74.70;100688.81;4992297;28;48817;-73
2021/11/04 08:48:18;;;;;;;;;12.33;11.00;;;;;10.33;74.53;100691.44;4997752;28;45255;-73
2021/11/04 08:50:44;;;;;;;;;11.33;9.33;;;;;10.34;74.53;100696.75;4998980;28;45384;-73
2021/11/04 08:53:09;;;;;;;;;9.67;9.67;;;;;10.32;74.52;100693.19;4999267;28;45581;-73
2021/11/04 08:55:35;;;;;;;;;9.25;8.00;;;;;10.36;74.54;100699.41;4998855;28;46247;-73
2021/11/04 08:58:01;;;;;;;;;12.00;9.67;;;;;10.40;74.59;100699.44;4998918;28;45462;-72
2021/11/04 09:00:26;;;;;;;;;13.00;8.33;;;;;10.48;74.62;100702.16;4998752;28;45402;-72
2021/11/04 09:02:52;;;;;;;;;9.50;9.00;;;;;10.62;74.43;100702.28;4999321;28;45647;-73
2021/11/04 09:05:17;;;;;;;;;9.67;8.33;;;;;10.73;74.09;100692.69;4998542;28;46599;-72
2021/11/04 09:07:44;;;;;;;;;8.33;8.33;;;;;10.87;73.89;100693.69;4997430;28;45323;-72
2021/11/04 09:10:10;;;;;;;;;7.33;7.33;;;;;10.96;73.60;100700.78;4998757;28;45471;-73
2021/11/04 09:12:36;;;;;;;;;9.00;8.00;;;;;11.01;73.58;100702.59;4998633;28;45564;-71
2021/11/04 09:15:03;;;;;;;;;8.67;8.00;;;;;11.10;73.59;100709.69;4998531;28;47482;-72
2021/11/04 09:17:28;;;;;;;;;13.00;7.33;;;;;11.19;73.71;100707.13;4998494;28;45350;-72
2021/11/04 09:19:53;;;;;;;;;11.00;7.67;;;;;11.30;73.05;100715.13;4994919;28;45615;-73
2021/11/04 09:22:20;;;;;;;;;7.33;4.67;;;;;11.33;73.11;100717.78;4998324;28;45580;-72
2021/11/04 09:24:46;;;;;;;;;4.33;3.00;;;;;11.38;72.69;100721.31;4998250;28;46344;-72
2021/11/04 09:27:11;;;;;;;;;4.00;3.00;;;;;11.41;72.56;100717.84;4998434;28;45152;-72
2021/11/04 09:29:38;;;;;;;;;4.33;1.67;;;;;11.31;72.12;100705.44;4998616;28;45201;-72
2021/11/04 09:32:06;;;;;;;;;7.67;3.00;;;;;11.43;72.11;100724.00;4998554;28;45335;-72
2021/11/04 09:34:32;;;;;;;;;3.33;2.33;;;;;11.44;72.26;100733.69;4997843;28;46164;-72
2021/11/04 09:36:57;;;;;;;;;4.33;2.00;;;;;11.43;72.09;100737.22;4998205;28;45361;-72
2021/11/04 09:39:22;;;;;;;;;4.00;3.00;;;;;11.48;71.61;100739.00;4998191;28;45350;-72
2021/11/04 09:41:48;;;;;;;;;2.00;2.00;;;;;11.41;71.41;100717.84;4997144;28;45442;-72
2021/11/04 09:44:13;;;;;;;;;4.00;3.00;;;;;11.57;71.24;100734.66;5013162;28;46288;-72
2021/11/04 09:46:42;;;;;;;;;3.00;2.00;;;;;11.59;70.48;100738.19;4998133;28;45338;-72
2021/11/04 09:49:07;;;;;;;;;3.67;1.67;;;;;11.55;70.52;100732.00;4996709;28;45245;-72
2021/11/04 09:51:33;;;;;;;;;5.33;3.00;;;;;11.54;70.30;100728.47;4998484;28;45728;-72
2021/11/04 09:53:58;;;;;;;;;2.00;2.00;;;;;11.50;70.18;100734.63;4997975;28;46467;-73
2021/11/04 09:56:24;;;;;;;;;2.00;2.00;;;;;11.39;70.15;100733.66;4997906;28;45409;-72
2021/11/04 09:58:49;;;;;;;;;2.33;2.33;;;;;11.34;70.41;100750.38;4997713;28;45289;-72
2021/11/04 10:01:25;;;;;;;;;4.33;2.33;;;;;11.38;70.49;100753.06;4997654;28;45351;-72
2021/11/04 10:03:52;;;;;;;;;7.33;3.00;;;;;11.42;70.36;100751.31;4996450;28;46523;-72
2021/11/04 10:06:29;;;;;;;;;3.00;3.00;;;;;11.46;70.41;100759.28;4997504;28;45329;-72
2021/11/04 10:08:58;;;;;;;;;5.00;4.00;;;;;11.58;70.20;100749.66;4997674;28;45489;-72
2021/11/04 10:11:27;;;;;;;;;5.00;3.00;;;;;11.65;69.67;100744.38;4997838;28;45509;-72
2021/11/04 10:13:53;;;;;;;;;4.00;3.00;;;;;11.77;69.60;100749.75;4996012;28;46701;-72
2021/11/04 10:16:18;;;;;;;;;2.00;2.00;;;;;11.87;69.46;100749.81;4979496;28;50902;-72
2021/11/04 10:18:45;;;;;;;;;2.67;2.67;;;;;11.93;69.16;100756.03;4997607;28;45273;-72
2021/11/04 10:21:11;;;;;;;;;2.00;2.00;;;;;11.97;68.58;100751.63;4993708;28;45502;-72
2021/11/04 10:23:45;;;;;;;;;6.33;3.00;;;;;12.03;68.51;100762.22;4997326;28;47300;-72
2021/11/04 10:26:17;;;;;;;;;2.67;2.67;;;;;12.04;68.23;100761.38;4997495;28;45532;-73
2021/11/04 10:28:44;;;;;;;;;3.33;3.00;;;;;12.01;68.34;100764.00;4997291;28;45433;-72
2021/11/04 10:31:11;;;;;;;;;6.00;3.00;;;;;11.95;68.51;100772.78;4997904;28;45979;-72
2021/11/04 10:33:38;;;;;;;;;3.00;3.00;;;;;11.90;68.34;100769.25;4997398;28;46336;-72
2021/11/04 10:36:30;;;;;;;;;3.33;2.00;;;;;11.93;69.04;100765.72;4997289;28;45347;-72
2021/11/04 10:38:59;;;;;;;;;4.67;2.00;;;;;12.08;68.87;100763.13;4997084;28;45522;-72
2021/11/04 10:41:40;;;;;;;;;4.33;3.00;;;;;12.27;68.15;100774.69;4997215;28;45494;-72
2021/11/04 10:44:07;;;;;;;;;2.00;2.00;;;;;12.43;67.80;100767.66;4990434;28;47486;-72
2021/11/04 10:46:58;;;;;;;;;3.67;3.00;;;;;12.59;67.67;100767.69;4996858;28;45468;-72
2021/11/04 10:49:27;;;;;;;;;4.67;3.00;;;;;12.72;67.70;100773.88;4997054;28;45291;-72
2021/11/04 10:51:58;;;;;;;;;3.00;3.00;;;;;12.81;66.65;100775.66;4997299;28;45547;-71
2021/11/04 10:54:23;;;;;;;;;7.33;4.00;;;;;12.89;67.45;100771.28;4996763;28;46748;-72
2021/11/04 10:56:51;;;;;;;;;3.00;3.00;;;;;12.89;66.28;100770.38;4996679;28;53669;-72
2021/11/04 10:59:17;;;;;;;;;4.67;3.00;;;;;12.90;66.04;100775.69;4995907;28;45386;-72
2021/11/04 11:01:51;;;;;;;;;4.00;2.00;;;;;12.87;65.78;100775.66;4997135;28;45179;-72
2021/11/04 11:04:19;;;;;;;;;2.00;2.00;;;;;12.84;65.53;100770.38;4996888;28;45564;-73
2021/11/04 11:06:45;;;;;;;;;2.33;2.33;;;;;12.86;65.78;100784.50;4996658;28;45398;-72
2021/11/04 11:09:13;;;;;;;;;3.00;3.00;;;;;12.79;65.71;100782.75;4997028;28;45764;-72
2021/11/04 11:11:39;;;;;;;;;2.00;2.00;;;;;12.73;65.05;100798.59;4995836;28;45541;-72
2021/11/04 11:14:05;;;;;;;;;3.33;2.00;;;;;12.65;65.61;100793.31;5110148;22;46007;-72
2021/11/04 11:16:30;;;;;;;;;2.00;2.00;;;;;12.61;65.56;100793.28;5000247;28;45439;-72